sensor_id;sensor_type;location;lat;lon;timestamp;P1;durP1;ratioP1;P2;durP2;ratioP2
71496;SDS011;59317;53.218;5.730;2022-10-30T00:01:45;22.67;;;11.97;;
71496;SDS011;59317;53.218;5.730;2022-10-30T00:04:28;22.97;;;11.60;;
71496;SDS011;59317;53.218;5.730;2022-10-30T00:45:57;22.83;;;11.10;;
71496;SDS011;59317;53.218;5.730;2022-10-30T01:47:24;23.77;;;11.40;;
71496;SDS011;59317;53.218;5.730;2022-10-30T01:58:16;23.10;;;11.50;;
71496;SDS011;59317;53.218;5.730;2022-10-30T02:00:43;22.30;;;11.43;;
71496;SDS011;59317;53.218;5.730;2022-10-30T02:05:50;26.83;;;11.75;;
71496;SDS011;59317;53.218;5.730;2022-10-30T02:08:16;27.42;;;11.43;;
71496;SDS011;59317;53.218;5.730;2022-10-30T02:10:43;27.48;;;11.50;;
71496;SDS011;59317;53.218;5.730;2022-10-30T02:13:09;23.88;;;11.63;;
71496;SDS011;59317;53.218;5.730;2022-10-30T02:23:41;24.08;;;11.70;;
71496;SDS011;59317;53.218;5.730;2022-10-30T02:26:07;24.75;;;11.77;;
71496;SDS011;59317;53.218;5.730;2022-10-30T02:28:33;22.88;;;11.40;;
71496;SDS011;59317;53.218;5.730;2022-10-30T02:30:59;22.90;;;11.77;;
71496;SDS011;59317;53.218;5.730;2022-10-30T02:33:25;25.40;;;11.13;;
71496;SDS011;59317;53.218;5.730;2022-10-30T02:35:54;24.05;;;11.45;;
71496;SDS011;59317;53.218;5.730;2022-10-30T02:38:20;27.77;;;11.80;;
71496;SDS011;59317;53.218;5.730;2022-10-30T02:40:46;25.50;;;11.07;;
71496;SDS011;59317;53.218;5.730;2022-10-30T02:43:12;23.40;;;11.10;;
71496;SDS011;59317;53.218;5.730;2022-10-30T02:45:38;22.88;;;11.68;;
71496;SDS011;59317;53.218;5.730;2022-10-30T02:48:16;24.45;;;11.65;;
71496;SDS011;59317;53.218;5.730;2022-10-30T02:50:42;25.73;;;11.57;;
71496;SDS011;59317;53.218;5.730;2022-10-30T02:53:08;26.70;;;12.20;;
71496;SDS011;59317;53.218;5.730;2022-10-30T02:55:34;25.70;;;11.98;;
71496;SDS011;59317;53.218;5.730;2022-10-30T02:58:13;26.13;;;12.50;;
71496;SDS011;59317;53.218;5.730;2022-10-30T03:00:39;26.05;;;12.27;;
71496;SDS011;59317;53.218;5.730;2022-10-30T03:03:05;28.95;;;12.50;;
71496;SDS011;59317;53.218;5.730;2022-10-30T03:05:31;24.25;;;12.02;;
71496;SDS011;59317;53.218;5.730;2022-10-30T03:08:11;28.10;;;11.80;;
71496;SDS011;59317;53.218;5.730;2022-10-30T03:10:37;25.27;;;11.68;;
71496;SDS011;59317;53.218;5.730;2022-10-30T03:13:03;29.13;;;12.25;;
71496;SDS011;59317;53.218;5.730;2022-10-30T03:15:31;27.13;;;12.07;;
71496;SDS011;59317;53.218;5.730;2022-10-30T03:18:17;26.15;;;12.13;;
71496;SDS011;59317;53.218;5.730;2022-10-30T03:20:43;25.58;;;11.82;;
71496;SDS011;59317;53.218;5.730;2022-10-30T03:23:09;25.95;;;12.25;;
71496;SDS011;59317;53.218;5.730;2022-10-30T03:25:50;26.30;;;13.23;;
71496;SDS011;59317;53.218;5.730;2022-10-30T03:28:16;28.38;;;12.77;;
71496;SDS011;59317;53.218;5.730;2022-10-30T03:30:42;28.83;;;12.95;;
71496;SDS011;59317;53.218;5.730;2022-10-30T03:33:08;27.23;;;12.80;;
71496;SDS011;59317;53.218;5.730;2022-10-30T03:35:34;29.13;;;13.13;;
71496;SDS011;59317;53.218;5.730;2022-10-30T03:38:21;30.92;;;13.27;;
71496;SDS011;59317;53.218;5.730;2022-10-30T03:40:47;25.38;;;12.50;;
71496;SDS011;59317;53.218;5.730;2022-10-30T03:43:13;27.53;;;13.10;;
71496;SDS011;59317;53.218;5.730;2022-10-30T03:48:34;27.10;;;13.27;;
71496;SDS011;59317;53.218;5.730;2022-10-30T03:51:00;26.45;;;12.73;;
71496;SDS011;59317;53.218;5.730;2022-10-30T03:53:27;29.38;;;13.40;;
71496;SDS011;59317;53.218;5.730;2022-10-30T03:55:57;28.15;;;12.73;;
71496;SDS011;59317;53.218;5.730;2022-10-30T03:58:29;26.73;;;12.60;;
71496;SDS011;59317;53.218;5.730;2022-10-30T04:01:06;27.93;;;12.63;;
71496;SDS011;59317;53.218;5.730;2022-10-30T04:03:33;28.33;;;12.98;;
71496;SDS011;59317;53.218;5.730;2022-10-30T04:06:17;28.13;;;12.40;;
71496;SDS011;59317;53.218;5.730;2022-10-30T04:08:43;26.95;;;13.50;;
71496;SDS011;59317;53.218;5.730;2022-10-30T04:11:09;30.17;;;14.35;;
71496;SDS011;59317;53.218;5.730;2022-10-30T04:13:35;27.05;;;13.30;;
71496;SDS011;59317;53.218;5.730;2022-10-30T04:16:01;26.90;;;13.30;;
71496;SDS011;59317;53.218;5.730;2022-10-30T04:18:27;28.45;;;12.93;;
71496;SDS011;59317;53.218;5.730;2022-10-30T04:20:53;31.17;;;13.20;;
71496;SDS011;59317;53.218;5.730;2022-10-30T04:23:20;29.13;;;13.57;;
71496;SDS011;59317;53.218;5.730;2022-10-30T04:25:46;30.13;;;14.00;;
71496;SDS011;59317;53.218;5.730;2022-10-30T04:28:12;31.80;;;13.70;;
71496;SDS011;59317;53.218;5.730;2022-10-30T04:30:38;29.38;;;13.65;;
71496;SDS011;59317;53.218;5.730;2022-10-30T04:33:06;30.17;;;14.05;;
71496;SDS011;59317;53.218;5.730;2022-10-30T04:35:33;30.10;;;12.97;;
71496;SDS011;59317;53.218;5.730;2022-10-30T04:38:10;30.40;;;13.63;;
71496;SDS011;59317;53.218;5.730;2022-10-30T04:40:38;29.45;;;13.98;;
71496;SDS011;59317;53.218;5.730;2022-10-30T04:43:05;32.70;;;14.10;;
71496;SDS011;59317;53.218;5.730;2022-10-30T04:45:31;32.28;;;14.35;;
71496;SDS011;59317;53.218;5.730;2022-10-30T04:48:01;34.73;;;14.90;;
71496;SDS011;59317;53.218;5.730;2022-10-30T04:50:27;32.03;;;14.48;;
71496;SDS011;59317;53.218;5.730;2022-10-30T04:53:06;31.35;;;14.95;;
71496;SDS011;59317;53.218;5.730;2022-10-30T04:55:33;32.72;;;14.50;;
71496;SDS011;59317;53.218;5.730;2022-10-30T04:57:59;33.80;;;14.43;;
71496;SDS011;59317;53.218;5.730;2022-10-30T05:00:29;30.40;;;14.37;;
71496;SDS011;59317;53.218;5.730;2022-10-30T05:02:57;34.15;;;15.05;;
71496;SDS011;59317;53.218;5.730;2022-10-30T05:05:23;29.35;;;13.95;;
71496;SDS011;59317;53.218;5.730;2022-10-30T05:07:49;34.67;;;14.27;;
71496;SDS011;59317;53.218;5.730;2022-10-30T05:10:15;28.95;;;13.23;;
71496;SDS011;59317;53.218;5.730;2022-10-30T05:12:42;35.35;;;14.63;;
71496;SDS011;59317;53.218;5.730;2022-10-30T05:15:09;32.40;;;14.38;;
71496;SDS011;59317;53.218;5.730;2022-10-30T05:17:35;34.90;;;14.98;;
71496;SDS011;59317;53.218;5.730;2022-10-30T05:20:01;28.65;;;13.98;;
71496;SDS011;59317;53.218;5.730;2022-10-30T05:22:27;30.58;;;14.05;;
71496;SDS011;59317;53.218;5.730;2022-10-30T05:25:10;30.80;;;14.52;;
71496;SDS011;59317;53.218;5.730;2022-10-30T05:27:39;33.22;;;14.57;;
71496;SDS011;59317;53.218;5.730;2022-10-30T05:30:06;30.67;;;14.13;;
71496;SDS011;59317;53.218;5.730;2022-10-30T05:35:16;34.13;;;15.07;;
71496;SDS011;59317;53.218;5.730;2022-10-30T05:37:42;37.28;;;15.30;;
71496;SDS011;59317;53.218;5.730;2022-10-30T05:40:08;32.47;;;15.20;;
71496;SDS011;59317;53.218;5.730;2022-10-30T05:42:34;34.83;;;14.82;;
71496;SDS011;59317;53.218;5.730;2022-10-30T05:45:01;31.60;;;14.93;;
71496;SDS011;59317;53.218;5.730;2022-10-30T05:47:28;33.47;;;15.57;;
71496;SDS011;59317;53.218;5.730;2022-10-30T05:49:53;31.57;;;15.83;;
71496;SDS011;59317;53.218;5.730;2022-10-30T05:52:19;31.67;;;14.90;;
71496;SDS011;59317;53.218;5.730;2022-10-30T05:54:45;34.63;;;15.30;;
71496;SDS011;59317;53.218;5.730;2022-10-30T05:57:11;36.58;;;15.93;;
71496;SDS011;59317;53.218;5.730;2022-10-30T05:59:40;35.60;;;15.70;;
71496;SDS011;59317;53.218;5.730;2022-10-30T06:02:06;34.63;;;15.82;;
71496;SDS011;59317;53.218;5.730;2022-10-30T06:04:32;35.35;;;15.77;;
71496;SDS011;59317;53.218;5.730;2022-10-30T06:06:58;33.47;;;15.13;;
71496;SDS011;59317;53.218;5.730;2022-10-30T06:09:24;38.50;;;16.80;;
71496;SDS011;59317;53.218;5.730;2022-10-30T06:11:50;32.97;;;15.35;;
71496;SDS011;59317;53.218;5.730;2022-10-30T06:14:16;36.20;;;16.20;;
71496;SDS011;59317;53.218;5.730;2022-10-30T06:16:42;39.60;;;16.00;;
71496;SDS011;59317;53.218;5.730;2022-10-30T06:19:08;32.77;;;16.60;;
71496;SDS011;59317;53.218;5.730;2022-10-30T06:21:34;32.73;;;15.57;;
71496;SDS011;59317;53.218;5.730;2022-10-30T06:24:00;37.60;;;15.60;;
71496;SDS011;59317;53.218;5.730;2022-10-30T06:26:26;32.80;;;15.02;;
71496;SDS011;59317;53.218;5.730;2022-10-30T06:28:52;30.50;;;13.98;;
71496;SDS011;59317;53.218;5.730;2022-10-30T06:31:18;28.95;;;12.82;;
71496;SDS011;59317;53.218;5.730;2022-10-30T06:33:44;29.23;;;12.50;;
71496;SDS011;59317;53.218;5.730;2022-10-30T06:36:10;29.77;;;13.88;;
71496;SDS011;59317;53.218;5.730;2022-10-30T06:38:36;32.45;;;13.88;;
71496;SDS011;59317;53.218;5.730;2022-10-30T06:41:02;32.63;;;15.50;;
71496;SDS011;59317;53.218;5.730;2022-10-30T06:43:28;38.05;;;16.98;;
71496;SDS011;59317;53.218;5.730;2022-10-30T06:45:55;38.25;;;16.75;;
71496;SDS011;59317;53.218;5.730;2022-10-30T06:48:21;35.13;;;17.02;;
71496;SDS011;59317;53.218;5.730;2022-10-30T06:50:54;38.28;;;17.65;;
71496;SDS011;59317;53.218;5.730;2022-10-30T06:53:22;34.28;;;16.08;;
71496;SDS011;59317;53.218;5.730;2022-10-30T06:55:57;36.53;;;16.05;;
71496;SDS011;59317;53.218;5.730;2022-10-30T06:58:26;30.48;;;15.35;;
71496;SDS011;59317;53.218;5.730;2022-10-30T07:01:01;33.83;;;16.70;;
71496;SDS011;59317;53.218;5.730;2022-10-30T07:03:27;37.75;;;16.38;;
71496;SDS011;59317;53.218;5.730;2022-10-30T07:06:12;28.85;;;15.05;;
71496;SDS011;59317;53.218;5.730;2022-10-30T07:08:38;26.77;;;14.68;;
71496;SDS011;59317;53.218;5.730;2022-10-30T07:11:07;29.33;;;13.83;;
71496;SDS011;59317;53.218;5.730;2022-10-30T07:13:33;28.65;;;14.05;;
71496;SDS011;59317;53.218;5.730;2022-10-30T07:15:59;26.70;;;13.97;;
71496;SDS011;59317;53.218;5.730;2022-10-30T07:18:40;30.10;;;14.30;;
71496;SDS011;59317;53.218;5.730;2022-10-30T07:21:06;28.83;;;13.75;;
71496;SDS011;59317;53.218;5.730;2022-10-30T07:23:32;31.73;;;14.90;;
71496;SDS011;59317;53.218;5.730;2022-10-30T07:25:58;30.80;;;14.38;;
71496;SDS011;59317;53.218;5.730;2022-10-30T07:28:33;28.53;;;14.50;;
71496;SDS011;59317;53.218;5.730;2022-10-30T07:30:59;27.93;;;14.73;;
71496;SDS011;59317;53.218;5.730;2022-10-30T07:33:36;28.70;;;14.40;;
71496;SDS011;59317;53.218;5.730;2022-10-30T07:36:02;30.13;;;13.50;;
71496;SDS011;59317;53.218;5.730;2022-10-30T07:38:32;23.48;;;13.07;;
71496;SDS011;59317;53.218;5.730;2022-10-30T07:41:18;29.92;;;13.30;;
71496;SDS011;59317;53.218;5.730;2022-10-30T07:43:50;24.97;;;13.33;;
71496;SDS011;59317;53.218;5.730;2022-10-30T07:49:08;26.45;;;12.88;;
71496;SDS011;59317;53.218;5.730;2022-10-30T07:51:52;27.55;;;12.95;;
71496;SDS011;59317;53.218;5.730;2022-10-30T07:57:05;27.23;;;12.27;;
71496;SDS011;59317;53.218;5.730;2022-10-30T07:59:48;23.60;;;12.20;;
71496;SDS011;59317;53.218;5.730;2022-10-30T08:05:18;22.33;;;11.48;;
71496;SDS011;59317;53.218;5.730;2022-10-30T08:07:45;23.02;;;11.30;;
71496;SDS011;59317;53.218;5.730;2022-10-30T08:10:17;21.90;;;11.88;;
71496;SDS011;59317;53.218;5.730;2022-10-30T08:13:05;22.92;;;11.20;;
71496;SDS011;59317;53.218;5.730;2022-10-30T08:15:49;23.80;;;11.60;;
71496;SDS011;59317;53.218;5.730;2022-10-30T08:18:17;20.75;;;11.30;;
71496;SDS011;59317;53.218;5.730;2022-10-30T08:23:51;20.50;;;11.20;;
71496;SDS011;59317;53.218;5.730;2022-10-30T08:26:36;20.23;;;10.70;;
71496;SDS011;59317;53.218;5.730;2022-10-30T08:29:19;25.20;;;11.13;;
71496;SDS011;59317;53.218;5.730;2022-10-30T08:31:54;21.20;;;10.87;;
71496;SDS011;59317;53.218;5.730;2022-10-30T08:34:47;19.80;;;11.13;;
71496;SDS011;59317;53.218;5.730;2022-10-30T08:40:29;21.45;;;12.05;;
71496;SDS011;59317;53.218;5.730;2022-10-30T08:43:14;25.08;;;14.02;;
71496;SDS011;59317;53.218;5.730;2022-10-30T08:45:56;22.40;;;12.23;;
71496;SDS011;59317;53.218;5.730;2022-10-30T08:48:25;21.13;;;12.07;;
71496;SDS011;59317;53.218;5.730;2022-10-30T08:51:02;23.20;;;10.88;;
71496;SDS011;59317;53.218;5.730;2022-10-30T08:53:52;21.45;;;10.68;;
71496;SDS011;59317;53.218;5.730;2022-10-30T08:59:47;20.85;;;10.65;;
71496;SDS011;59317;53.218;5.730;2022-10-30T09:02:13;20.88;;;10.95;;
71496;SDS011;59317;53.218;5.730;2022-10-30T09:04:39;22.73;;;11.25;;
71496;SDS011;59317;53.218;5.730;2022-10-30T09:12:52;21.58;;;10.63;;
71496;SDS011;59317;53.218;5.730;2022-10-30T09:18:27;22.55;;;11.00;;
71496;SDS011;59317;53.218;5.730;2022-10-30T09:21:11;21.30;;;10.43;;
71496;SDS011;59317;53.218;5.730;2022-10-30T09:26:30;18.05;;;10.30;;
71496;SDS011;59317;53.218;5.730;2022-10-30T09:32:25;21.70;;;10.88;;
71496;SDS011;59317;53.218;5.730;2022-10-30T09:35:08;18.40;;;10.18;;
71496;SDS011;59317;53.218;5.730;2022-10-30T09:37:46;21.23;;;10.40;;
71496;SDS011;59317;53.218;5.730;2022-10-30T09:40:38;21.13;;;10.57;;
71496;SDS011;59317;53.218;5.730;2022-10-30T09:57:17;19.25;;;10.48;;
71496;SDS011;59317;53.218;5.730;2022-10-30T10:00:03;20.13;;;10.48;;
71496;SDS011;59317;53.218;5.730;2022-10-30T10:02:32;23.75;;;10.00;;
71496;SDS011;59317;53.218;5.730;2022-10-30T10:05:13;16.77;;;9.70;;
71496;SDS011;59317;53.218;5.730;2022-10-30T10:08:15;20.55;;;9.98;;
71496;SDS011;59317;53.218;5.730;2022-10-30T10:13:42;21.83;;;10.30;;
71496;SDS011;59317;53.218;5.730;2022-10-30T10:16:17;20.25;;;10.50;;
71496;SDS011;59317;53.218;5.730;2022-10-30T10:18:47;20.55;;;10.13;;
71496;SDS011;59317;53.218;5.730;2022-10-30T10:21:24;20.50;;;10.32;;
71496;SDS011;59317;53.218;5.730;2022-10-30T10:23:53;21.55;;;10.45;;
71496;SDS011;59317;53.218;5.730;2022-10-30T10:29:05;20.13;;;10.48;;
71496;SDS011;59317;53.218;5.730;2022-10-30T10:39:33;20.65;;;9.60;;
71496;SDS011;59317;53.218;5.730;2022-10-30T10:53:17;20.15;;;9.50;;
71496;SDS011;59317;53.218;5.730;2022-10-30T10:55:46;20.15;;;9.52;;
71496;SDS011;59317;53.218;5.730;2022-10-30T10:58:15;22.25;;;10.18;;
71496;SDS011;59317;53.218;5.730;2022-10-30T11:00:46;18.57;;;9.60;;
71496;SDS011;59317;53.218;5.730;2022-10-30T11:03:13;18.87;;;8.70;;
71496;SDS011;59317;53.218;5.730;2022-10-30T11:08:18;18.55;;;9.65;;
71496;SDS011;59317;53.218;5.730;2022-10-30T11:10:46;22.23;;;9.35;;
71496;SDS011;59317;53.218;5.730;2022-10-30T11:13:13;21.02;;;9.40;;
71496;SDS011;59317;53.218;5.730;2022-10-30T11:18:24;18.83;;;8.80;;
71496;SDS011;59317;53.218;5.730;2022-10-30T11:20:54;21.90;;;9.67;;
71496;SDS011;59317;53.218;5.730;2022-10-30T11:23:40;20.67;;;9.43;;
71496;SDS011;59317;53.218;5.730;2022-10-30T11:31:22;21.40;;;9.60;;
71496;SDS011;59317;53.218;5.730;2022-10-30T11:33:49;18.40;;;8.75;;
71496;SDS011;59317;53.218;5.730;2022-10-30T11:36:17;23.43;;;9.37;;
71496;SDS011;59317;53.218;5.730;2022-10-30T11:38:43;19.93;;;9.17;;
71496;SDS011;59317;53.218;5.730;2022-10-30T11:41:09;18.88;;;9.23;;
71496;SDS011;59317;53.218;5.730;2022-10-30T11:43:36;19.92;;;9.85;;
71496;SDS011;59317;53.218;5.730;2022-10-30T11:46:03;21.03;;;9.90;;
71496;SDS011;59317;53.218;5.730;2022-10-30T11:48:33;18.90;;;9.23;;
71496;SDS011;59317;53.218;5.730;2022-10-30T11:51:02;22.92;;;9.68;;
71496;SDS011;59317;53.218;5.730;2022-10-30T11:53:29;19.27;;;9.20;;
71496;SDS011;59317;53.218;5.730;2022-10-30T11:55:58;21.15;;;9.43;;
71496;SDS011;59317;53.218;5.730;2022-10-30T12:01:06;22.35;;;9.52;;
71496;SDS011;59317;53.218;5.730;2022-10-30T12:03:37;19.40;;;9.75;;
71496;SDS011;59317;53.218;5.730;2022-10-30T12:06:15;20.67;;;9.55;;
71496;SDS011;59317;53.218;5.730;2022-10-30T12:11:27;18.40;;;9.60;;
71496;SDS011;59317;53.218;5.730;2022-10-30T12:13:54;21.00;;;9.25;;
71496;SDS011;59317;53.218;5.730;2022-10-30T12:16:20;19.93;;;8.50;;
71496;SDS011;59317;53.218;5.730;2022-10-30T12:18:53;22.52;;;9.57;;
71496;SDS011;59317;53.218;5.730;2022-10-30T12:21:22;19.17;;;8.73;;
71496;SDS011;59317;53.218;5.730;2022-10-30T12:23:58;20.33;;;8.95;;
71496;SDS011;59317;53.218;5.730;2022-10-30T12:26:27;19.55;;;8.93;;
71496;SDS011;59317;53.218;5.730;2022-10-30T12:28:56;20.30;;;9.27;;
71496;SDS011;59317;53.218;5.730;2022-10-30T12:32:09;21.35;;;9.07;;
71496;SDS011;59317;53.218;5.730;2022-10-30T12:34:22;20.10;;;9.40;;
71496;SDS011;59317;53.218;5.730;2022-10-30T12:36:51;21.73;;;10.00;;
71496;SDS011;59317;53.218;5.730;2022-10-30T12:39:26;20.03;;;9.90;;
71496;SDS011;59317;53.218;5.730;2022-10-30T12:52:00;17.60;;;8.65;;
71496;SDS011;59317;53.218;5.730;2022-10-30T12:57:16;22.65;;;9.15;;
71496;SDS011;59317;53.218;5.730;2022-10-30T12:59:56;18.60;;;8.98;;
71496;SDS011;59317;53.218;5.730;2022-10-30T13:03:10;18.52;;;9.40;;
71496;SDS011;59317;53.218;5.730;2022-10-30T13:10:31;18.50;;;8.43;;
71496;SDS011;59317;53.218;5.730;2022-10-30T13:13:09;16.65;;;8.25;;
71496;SDS011;59317;53.218;5.730;2022-10-30T13:15:36;18.35;;;7.82;;
71496;SDS011;59317;53.218;5.730;2022-10-30T13:18:13;14.43;;;7.33;;
71496;SDS011;59317;53.218;5.730;2022-10-30T13:20:40;18.97;;;7.77;;
71496;SDS011;59317;53.218;5.730;2022-10-30T13:23:09;17.70;;;8.18;;
71496;SDS011;59317;53.218;5.730;2022-10-30T13:25:41;19.00;;;7.47;;
71496;SDS011;59317;53.218;5.730;2022-10-30T13:28:17;17.43;;;7.50;;
71496;SDS011;59317;53.218;5.730;2022-10-30T13:31:00;18.35;;;7.40;;
71496;SDS011;59317;53.218;5.730;2022-10-30T13:33:31;18.02;;;7.93;;
71496;SDS011;59317;53.218;5.730;2022-10-30T13:51:48;17.47;;;7.33;;
71496;SDS011;59317;53.218;5.730;2022-10-30T13:56:45;14.63;;;6.72;;
71496;SDS011;59317;53.218;5.730;2022-10-30T13:59:19;16.08;;;7.05;;
71496;SDS011;59317;53.218;5.730;2022-10-30T14:01:55;19.57;;;7.30;;
71496;SDS011;59317;53.218;5.730;2022-10-30T14:04:29;16.02;;;6.50;;
71496;SDS011;59317;53.218;5.730;2022-10-30T14:07:07;13.23;;;6.47;;
71496;SDS011;59317;53.218;5.730;2022-10-30T14:09:39;18.50;;;6.97;;
71496;SDS011;59317;53.218;5.730;2022-10-30T14:14:52;15.07;;;6.65;;
71496;SDS011;59317;53.218;5.730;2022-10-30T14:17:18;15.02;;;7.28;;
71496;SDS011;59317;53.218;5.730;2022-10-30T14:22:29;20.05;;;7.72;;
71496;SDS011;59317;53.218;5.730;2022-10-30T14:24:55;17.83;;;7.47;;
71496;SDS011;59317;53.218;5.730;2022-10-30T14:27:28;15.97;;;7.40;;
71496;SDS011;59317;53.218;5.730;2022-10-30T14:29:55;16.98;;;7.72;;
71496;SDS011;59317;53.218;5.730;2022-10-30T14:39:52;20.98;;;9.52;;
71496;SDS011;59317;53.218;5.730;2022-10-30T14:43:01;19.05;;;9.50;;
71496;SDS011;59317;53.218;5.730;2022-10-30T14:45:09;22.10;;;10.25;;
71496;SDS011;59317;53.218;5.730;2022-10-30T14:57:53;23.05;;;10.77;;
71496;SDS011;59317;53.218;5.730;2022-10-30T15:03:17;23.63;;;10.73;;
71496;SDS011;59317;53.218;5.730;2022-10-30T15:05:51;18.98;;;9.77;;
71496;SDS011;59317;53.218;5.730;2022-10-30T15:10:50;21.23;;;10.40;;
71496;SDS011;59317;53.218;5.730;2022-10-30T15:13:24;23.38;;;11.68;;
71496;SDS011;59317;53.218;5.730;2022-10-30T15:15:57;20.92;;;11.10;;
71496;SDS011;59317;53.218;5.730;2022-10-30T15:18:23;25.35;;;11.82;;
71496;SDS011;59317;53.218;5.730;2022-10-30T15:20:50;21.40;;;11.68;;
71496;SDS011;59317;53.218;5.730;2022-10-30T15:23:26;23.25;;;11.43;;
71496;SDS011;59317;53.218;5.730;2022-10-30T15:25:54;25.60;;;11.77;;
71496;SDS011;59317;53.218;5.730;2022-10-30T15:28:27;23.90;;;11.65;;
71496;SDS011;59317;53.218;5.730;2022-10-30T15:33:36;23.88;;;11.90;;
71496;SDS011;59317;53.218;5.730;2022-10-30T15:36:03;22.05;;;11.95;;
71496;SDS011;59317;53.218;5.730;2022-10-30T15:38:29;24.80;;;11.85;;
71496;SDS011;59317;53.218;5.730;2022-10-30T15:40:58;23.00;;;11.52;;
71496;SDS011;59317;53.218;5.730;2022-10-30T15:43:32;22.77;;;11.88;;
71496;SDS011;59317;53.218;5.730;2022-10-30T15:45:59;26.50;;;12.35;;
71496;SDS011;59317;53.218;5.730;2022-10-30T15:48:29;22.08;;;12.05;;
71496;SDS011;59317;53.218;5.730;2022-10-30T15:51:15;21.70;;;11.90;;
71496;SDS011;59317;53.218;5.730;2022-10-30T15:56:13;21.08;;;11.70;;
71496;SDS011;59317;53.218;5.730;2022-10-30T15:58:41;26.58;;;12.27;;
71496;SDS011;59317;53.218;5.730;2022-10-30T16:01:21;27.87;;;12.30;;
71496;SDS011;59317;53.218;5.730;2022-10-30T16:03:51;21.23;;;11.35;;
71496;SDS011;59317;53.218;5.730;2022-10-30T16:06:17;26.87;;;11.83;;
71496;SDS011;59317;53.218;5.730;2022-10-30T16:08:44;24.38;;;12.15;;
71496;SDS011;59317;53.218;5.730;2022-10-30T16:11:11;22.95;;;12.32;;
71496;SDS011;59317;53.218;5.730;2022-10-30T16:13:38;25.48;;;12.77;;
71496;SDS011;59317;53.218;5.730;2022-10-30T16:16:04;28.42;;;12.50;;
71496;SDS011;59317;53.218;5.730;2022-10-30T16:18:30;25.13;;;12.20;;
71496;SDS011;59317;53.218;5.730;2022-10-30T16:21:16;24.05;;;12.63;;
71496;SDS011;59317;53.218;5.730;2022-10-30T16:23:46;23.38;;;13.00;;
71496;SDS011;59317;53.218;5.730;2022-10-30T16:26:23;23.52;;;12.57;;
71496;SDS011;59317;53.218;5.730;2022-10-30T16:28:49;25.17;;;13.13;;
71496;SDS011;59317;53.218;5.730;2022-10-30T16:31:15;29.55;;;13.52;;
71496;SDS011;59317;53.218;5.730;2022-10-30T16:33:44;25.95;;;14.00;;
71496;SDS011;59317;53.218;5.730;2022-10-30T16:36:11;25.65;;;14.23;;
71496;SDS011;59317;53.218;5.730;2022-10-30T16:38:40;27.08;;;13.57;;
71496;SDS011;59317;53.218;5.730;2022-10-30T16:41:07;30.48;;;14.80;;
71496;SDS011;59317;53.218;5.730;2022-10-30T16:43:41;27.92;;;14.70;;
71496;SDS011;59317;53.218;5.730;2022-10-30T16:48:42;27.97;;;14.60;;
71496;SDS011;59317;53.218;5.730;2022-10-30T16:51:11;27.00;;;15.07;;
71496;SDS011;59317;53.218;5.730;2022-10-30T16:53:38;27.83;;;14.88;;
71496;SDS011;59317;53.218;5.730;2022-10-30T16:56:04;30.73;;;15.98;;
71496;SDS011;59317;53.218;5.730;2022-10-30T16:58:38;30.02;;;16.40;;
71496;SDS011;59317;53.218;5.730;2022-10-30T17:01:05;28.03;;;16.13;;
71496;SDS011;59317;53.218;5.730;2022-10-30T17:03:40;33.05;;;17.80;;
71496;SDS011;59317;53.218;5.730;2022-10-30T17:06:11;29.98;;;16.75;;
71496;SDS011;59317;53.218;5.730;2022-10-30T17:08:50;31.30;;;18.35;;
71496;SDS011;59317;53.218;5.730;2022-10-30T17:11:17;33.45;;;17.65;;
71496;SDS011;59317;53.218;5.730;2022-10-30T17:16:29;30.08;;;16.92;;
71496;SDS011;59317;53.218;5.730;2022-10-30T17:18:56;32.33;;;16.70;;
71496;SDS011;59317;53.218;5.730;2022-10-30T17:21:27;31.10;;;16.75;;
71496;SDS011;59317;53.218;5.730;2022-10-30T17:23:57;31.48;;;16.20;;
71496;SDS011;59317;53.218;5.730;2022-10-30T17:26:24;33.67;;;16.00;;
71496;SDS011;59317;53.218;5.730;2022-10-30T17:28:51;32.10;;;16.00;;
71496;SDS011;59317;53.218;5.730;2022-10-30T17:33:43;30.17;;;15.02;;
71496;SDS011;59317;53.218;5.730;2022-10-30T17:36:10;27.13;;;14.47;;
71496;SDS011;59317;53.218;5.730;2022-10-30T17:38:36;27.92;;;14.25;;
71496;SDS011;59317;53.218;5.730;2022-10-30T17:41:02;28.75;;;14.13;;
71496;SDS011;59317;53.218;5.730;2022-10-30T17:43:29;30.88;;;13.93;;
71496;SDS011;59317;53.218;5.730;2022-10-30T17:45:56;26.65;;;13.13;;
71496;SDS011;59317;53.218;5.730;2022-10-30T17:48:25;24.95;;;12.90;;
71496;SDS011;59317;53.218;5.730;2022-10-30T17:50:52;29.27;;;12.30;;
71496;SDS011;59317;53.218;5.730;2022-10-30T17:53:19;24.45;;;12.73;;
71496;SDS011;59317;53.218;5.730;2022-10-30T17:55:59;27.77;;;12.57;;
71496;SDS011;59317;53.218;5.730;2022-10-30T17:58:26;26.53;;;12.10;;
71496;SDS011;59317;53.218;5.730;2022-10-30T18:00:54;26.48;;;11.50;;
71496;SDS011;59317;53.218;5.730;2022-10-30T18:03:20;26.10;;;11.68;;
71496;SDS011;59317;53.218;5.730;2022-10-30T18:05:46;27.00;;;11.80;;
71496;SDS011;59317;53.218;5.730;2022-10-30T18:08:13;25.73;;;12.30;;
71496;SDS011;59317;53.218;5.730;2022-10-30T18:10:39;24.63;;;13.07;;
71496;SDS011;59317;53.218;5.730;2022-10-30T18:13:05;29.08;;;12.52;;
71496;SDS011;59317;53.218;5.730;2022-10-30T18:15:34;29.70;;;12.98;;
71496;SDS011;59317;53.218;5.730;2022-10-30T18:18:03;26.05;;;13.00;;
71496;SDS011;59317;53.218;5.730;2022-10-30T18:20:30;25.75;;;13.13;;
71496;SDS011;59317;53.218;5.730;2022-10-30T18:22:56;28.63;;;13.38;;
71496;SDS011;59317;53.218;5.730;2022-10-30T18:25:26;27.70;;;13.27;;
71496;SDS011;59317;53.218;5.730;2022-10-30T18:27:52;29.90;;;13.38;;
71496;SDS011;59317;53.218;5.730;2022-10-30T18:30:19;29.83;;;14.07;;
71496;SDS011;59317;53.218;5.730;2022-10-30T18:32:45;31.50;;;13.93;;
71496;SDS011;59317;53.218;5.730;2022-10-30T18:37:46;29.63;;;13.63;;
71496;SDS011;59317;53.218;5.730;2022-10-30T18:40:12;24.63;;;13.07;;
71496;SDS011;59317;53.218;5.730;2022-10-30T18:42:38;25.75;;;13.05;;
71496;SDS011;59317;53.218;5.730;2022-10-30T18:45:23;31.90;;;13.93;;
71496;SDS011;59317;53.218;5.730;2022-10-30T18:47:50;29.53;;;13.53;;
71496;SDS011;59317;53.218;5.730;2022-10-30T18:50:17;28.25;;;13.63;;
71496;SDS011;59317;53.218;5.730;2022-10-30T18:52:44;27.70;;;13.40;;
71496;SDS011;59317;53.218;5.730;2022-10-30T18:57:38;28.42;;;14.48;;
71496;SDS011;59317;53.218;5.730;2022-10-30T19:00:04;28.52;;;14.20;;
71496;SDS011;59317;53.218;5.730;2022-10-30T19:02:31;30.33;;;14.10;;
71496;SDS011;59317;53.218;5.730;2022-10-30T19:04:57;32.03;;;14.03;;
71496;SDS011;59317;53.218;5.730;2022-10-30T19:07:23;30.13;;;12.93;;
71496;SDS011;59317;53.218;5.730;2022-10-30T19:09:48;31.37;;;13.03;;
71496;SDS011;59317;53.218;5.730;2022-10-30T19:12:14;26.57;;;12.40;;
71496;SDS011;59317;53.218;5.730;2022-10-30T19:14:40;27.40;;;12.17;;
71496;SDS011;59317;53.218;5.730;2022-10-30T19:17:06;22.05;;;10.98;;
71496;SDS011;59317;53.218;5.730;2022-10-30T19:19:32;27.73;;;11.27;;
71496;SDS011;59317;53.218;5.730;2022-10-30T19:21:59;26.75;;;11.45;;
71496;SDS011;59317;53.218;5.730;2022-10-30T19:24:25;23.58;;;10.32;;
71496;SDS011;59317;53.218;5.730;2022-10-30T19:26:51;23.50;;;10.50;;
71496;SDS011;59317;53.218;5.730;2022-10-30T19:29:17;22.98;;;9.73;;
71496;SDS011;59317;53.218;5.730;2022-10-30T19:31:43;20.85;;;8.40;;
71496;SDS011;59317;53.218;5.730;2022-10-30T19:34:09;19.35;;;7.88;;